sensor_id;sensor_type;location;lat;lon;timestamp;P1;durP1;ratioP1;P2;durP2;ratioP2
19219;SDS011;9744;49.364;7.484;2023-02-03T00:00:28;17.27;;;10.73;;
19219;SDS011;9744;49.364;7.484;2023-02-03T00:06:58;15.55;;;9.32;;
19219;SDS011;9744;49.364;7.484;2023-02-03T00:09:26;19.80;;;11.25;;
19219;SDS011;9744;49.364;7.484;2023-02-03T00:51:13;17.98;;;8.95;;
19219;SDS011;9744;49.364;7.484;2023-02-03T00:53:40;16.95;;;9.82;;
19219;SDS011;9744;49.364;7.484;2023-02-03T00:56:08;14.73;;;8.90;;
19219;SDS011;9744;49.364;7.484;2023-02-03T00:58:37;13.05;;;8.05;;
19219;SDS011;9744;49.364;7.484;2023-02-03T01:01:05;16.50;;;7.88;;
19219;SDS011;9744;49.364;7.484;2023-02-03T01:03:34;21.25;;;8.85;;
19219;SDS011;9744;49.364;7.484;2023-02-03T01:06:10;11.13;;;8.02;;
19219;SDS011;9744;49.364;7.484;2023-02-03T01:08:40;19.88;;;8.93;;
19219;SDS011;9744;49.364;7.484;2023-02-03T01:11:09;14.75;;;9.57;;
19219;SDS011;9744;49.364;7.484;2023-02-03T01:13:39;15.80;;;8.68;;
19219;SDS011;9744;49.364;7.484;2023-02-03T01:16:09;19.50;;;9.07;;
19219;SDS011;9744;49.364;7.484;2023-02-03T01:18:37;16.75;;;9.25;;
19219;SDS011;9744;49.364;7.484;2023-02-03T01:21:06;19.60;;;9.55;;
19219;SDS011;9744;49.364;7.484;2023-02-03T01:27:45;14.75;;;9.93;;
19219;SDS011;9744;49.364;7.484;2023-02-03T01:30:13;13.63;;;8.60;;
19219;SDS011;9744;49.364;7.484;2023-02-03T01:32:41;18.23;;;10.07;;
19219;SDS011;9744;49.364;7.484;2023-02-03T01:35:09;17.23;;;9.73;;
19219;SDS011;9744;49.364;7.484;2023-02-03T01:37:37;15.73;;;10.75;;
19219;SDS011;9744;49.364;7.484;2023-02-03T01:40:05;20.25;;;9.90;;
19219;SDS011;9744;49.364;7.484;2023-02-03T01:42:34;23.35;;;10.32;;
19219;SDS011;9744;49.364;7.484;2023-02-03T01:45:04;15.63;;;10.50;;
19219;SDS011;9744;49.364;7.484;2023-02-03T01:47:33;19.75;;;9.98;;
19219;SDS011;9744;49.364;7.484;2023-02-03T01:50:07;17.55;;;10.05;;
19219;SDS011;9744;49.364;7.484;2023-02-03T01:52:39;21.25;;;9.98;;
19219;SDS011;9744;49.364;7.484;2023-02-03T01:55:10;21.55;;;11.30;;
19219;SDS011;9744;49.364;7.484;2023-02-03T01:57:42;21.05;;;12.18;;
19219;SDS011;9744;49.364;7.484;2023-02-03T02:00:18;21.90;;;11.90;;
19219;SDS011;9744;49.364;7.484;2023-02-03T02:02:46;18.05;;;10.88;;
19219;SDS011;9744;49.364;7.484;2023-02-03T02:05:17;21.70;;;11.05;;
19219;SDS011;9744;49.364;7.484;2023-02-03T02:07:51;18.80;;;11.15;;
19219;SDS011;9744;49.364;7.484;2023-02-03T02:10:19;18.23;;;11.18;;
19219;SDS011;9744;49.364;7.484;2023-02-03T02:12:47;22.15;;;12.27;;
19219;SDS011;9744;49.364;7.484;2023-02-03T02:15:14;19.77;;;11.85;;
19219;SDS011;9744;49.364;7.484;2023-02-03T02:17:53;18.85;;;11.65;;
19219;SDS011;9744;49.364;7.484;2023-02-03T02:20:44;19.65;;;11.85;;
19219;SDS011;9744;49.364;7.484;2023-02-03T02:23:29;20.83;;;12.18;;
19219;SDS011;9744;49.364;7.484;2023-02-03T02:26:12;22.85;;;12.70;;
19219;SDS011;9744;49.364;7.484;2023-02-03T02:29:09;20.42;;;11.80;;
19219;SDS011;9744;49.364;7.484;2023-02-03T02:31:52;27.85;;;13.73;;
19219;SDS011;9744;49.364;7.484;2023-02-03T02:34:30;23.73;;;12.50;;
19219;SDS011;9744;49.364;7.484;2023-02-03T02:37:13;23.75;;;13.77;;
19219;SDS011;9744;49.364;7.484;2023-02-03T02:39:52;25.80;;;13.55;;
19219;SDS011;9744;49.364;7.484;2023-02-03T02:42:26;25.75;;;13.05;;
19219;SDS011;9744;49.364;7.484;2023-02-03T02:45:04;24.48;;;13.07;;
19219;SDS011;9744;49.364;7.484;2023-02-03T02:47:38;24.88;;;13.27;;
19219;SDS011;9744;49.364;7.484;2023-02-03T02:50:08;31.67;;;14.10;;
19219;SDS011;9744;49.364;7.484;2023-02-03T02:52:41;23.83;;;14.35;;
19219;SDS011;9744;49.364;7.484;2023-02-03T02:55:12;26.05;;;13.52;;
19219;SDS011;9744;49.364;7.484;2023-02-03T02:57:43;31.75;;;14.15;;
19219;SDS011;9744;49.364;7.484;2023-02-03T03:00:17;33.88;;;13.80;;
19219;SDS011;9744;49.364;7.484;2023-02-03T03:02:46;26.20;;;14.18;;
19219;SDS011;9744;49.364;7.484;2023-02-03T03:05:14;28.00;;;14.85;;
19219;SDS011;9744;49.364;7.484;2023-02-03T03:07:47;26.65;;;13.88;;
19219;SDS011;9744;49.364;7.484;2023-02-03T03:10:20;30.02;;;14.30;;
19219;SDS011;9744;49.364;7.484;2023-02-03T03:12:52;26.77;;;13.30;;
19219;SDS011;9744;49.364;7.484;2023-02-03T03:15:24;25.88;;;14.00;;
19219;SDS011;9744;49.364;7.484;2023-02-03T03:17:59;26.52;;;14.27;;
19219;SDS011;9744;49.364;7.484;2023-02-03T03:20:31;25.40;;;14.20;;
19219;SDS011;9744;49.364;7.484;2023-02-03T03:23:02;23.00;;;13.32;;
19219;SDS011;9744;49.364;7.484;2023-02-03T03:25:34;25.55;;;13.57;;
19219;SDS011;9744;49.364;7.484;2023-02-03T03:28:07;22.75;;;12.77;;
19219;SDS011;9744;49.364;7.484;2023-02-03T03:30:39;26.20;;;14.10;;
19219;SDS011;9744;49.364;7.484;2023-02-03T03:33:08;23.52;;;13.23;;
19219;SDS011;9744;49.364;7.484;2023-02-03T03:35:37;24.60;;;12.60;;
19219;SDS011;9744;49.364;7.484;2023-02-03T03:38:08;27.08;;;14.02;;
19219;SDS011;9744;49.364;7.484;2023-02-03T03:40:43;28.80;;;12.68;;
19219;SDS011;9744;49.364;7.484;2023-02-03T03:43:16;27.05;;;13.43;;
19219;SDS011;9744;49.364;7.484;2023-02-03T03:45:53;27.75;;;13.48;;
19219;SDS011;9744;49.364;7.484;2023-02-03T03:48:26;24.33;;;12.85;;
19219;SDS011;9744;49.364;7.484;2023-02-03T03:50:58;22.83;;;13.55;;
19219;SDS011;9744;49.364;7.484;2023-02-03T03:53:29;25.42;;;13.27;;
19219;SDS011;9744;49.364;7.484;2023-02-03T03:56:00;25.10;;;12.65;;
19219;SDS011;9744;49.364;7.484;2023-02-03T03:58:31;29.17;;;14.05;;
19219;SDS011;9744;49.364;7.484;2023-02-03T04:01:00;26.75;;;13.52;;
19219;SDS011;9744;49.364;7.484;2023-02-03T04:03:31;23.80;;;13.48;;
19219;SDS011;9744;49.364;7.484;2023-02-03T04:06:03;25.38;;;12.70;;
19219;SDS011;9744;49.364;7.484;2023-02-03T04:08:31;21.92;;;13.07;;
19219;SDS011;9744;49.364;7.484;2023-02-03T04:10:59;28.63;;;12.50;;
19219;SDS011;9744;49.364;7.484;2023-02-03T04:13:26;29.05;;;14.18;;
19219;SDS011;9744;49.364;7.484;2023-02-03T04:15:53;26.05;;;14.10;;
19219;SDS011;9744;49.364;7.484;2023-02-03T04:18:21;30.88;;;13.07;;
19219;SDS011;9744;49.364;7.484;2023-02-03T04:20:50;23.35;;;13.57;;
19219;SDS011;9744;49.364;7.484;2023-02-03T04:23:18;34.63;;;14.70;;
19219;SDS011;9744;49.364;7.484;2023-02-03T04:25:45;25.70;;;14.27;;
19219;SDS011;9744;49.364;7.484;2023-02-03T04:28:12;26.23;;;13.43;;
19219;SDS011;9744;49.364;7.484;2023-02-03T04:30:39;27.52;;;13.32;;
19219;SDS011;9744;49.364;7.484;2023-02-03T04:33:07;28.17;;;13.85;;
19219;SDS011;9744;49.364;7.484;2023-02-03T04:35:34;23.15;;;13.75;;
19219;SDS011;9744;49.364;7.484;2023-02-03T04:38:03;27.60;;;13.88;;
19219;SDS011;9744;49.364;7.484;2023-02-03T04:40:31;27.00;;;13.00;;
19219;SDS011;9744;49.364;7.484;2023-02-03T04:42:58;27.50;;;13.52;;
19219;SDS011;9744;49.364;7.484;2023-02-03T04:45:32;27.60;;;14.00;;
19219;SDS011;9744;49.364;7.484;2023-02-03T04:48:00;29.52;;;13.43;;
19219;SDS011;9744;49.364;7.484;2023-02-03T04:50:29;27.75;;;13.68;;
19219;SDS011;9744;49.364;7.484;2023-02-03T04:52:56;25.98;;;12.82;;
19219;SDS011;9744;49.364;7.484;2023-02-03T04:55:26;26.35;;;13.27;;
19219;SDS011;9744;49.364;7.484;2023-02-03T04:57:55;23.25;;;13.25;;
19219;SDS011;9744;49.364;7.484;2023-02-03T05:00:23;26.13;;;13.57;;
19219;SDS011;9744;49.364;7.484;2023-02-03T05:02:50;34.78;;;15.90;;
19219;SDS011;9744;49.364;7.484;2023-02-03T05:05:18;23.27;;;13.35;;
19219;SDS011;9744;49.364;7.484;2023-02-03T05:07:46;85.75;;;31.05;;
19219;SDS011;9744;49.364;7.484;2023-02-03T05:10:14;29.65;;;13.45;;
19219;SDS011;9744;49.364;7.484;2023-02-03T05:12:43;31.55;;;14.55;;
19219;SDS011;9744;49.364;7.484;2023-02-03T05:15:10;40.67;;;20.52;;
19219;SDS011;9744;49.364;7.484;2023-02-03T05:17:42;25.65;;;14.48;;
19219;SDS011;9744;49.364;7.484;2023-02-03T05:20:10;32.92;;;14.45;;
19219;SDS011;9744;49.364;7.484;2023-02-03T05:22:38;30.77;;;15.70;;
19219;SDS011;9744;49.364;7.484;2023-02-03T05:25:06;32.28;;;16.98;;
19219;SDS011;9744;49.364;7.484;2023-02-03T05:27:34;43.13;;;18.05;;
19219;SDS011;9744;49.364;7.484;2023-02-03T05:30:05;29.73;;;15.43;;
19219;SDS011;9744;49.364;7.484;2023-02-03T05:32:34;28.40;;;14.85;;
19219;SDS011;9744;49.364;7.484;2023-02-03T05:35:01;26.23;;;15.20;;
19219;SDS011;9744;49.364;7.484;2023-02-03T05:37:29;30.63;;;14.85;;
19219;SDS011;9744;49.364;7.484;2023-02-03T05:39:56;27.67;;;14.80;;
19219;SDS011;9744;49.364;7.484;2023-02-03T05:42:47;26.55;;;14.80;;
19219;SDS011;9744;49.364;7.484;2023-02-03T05:45:16;26.02;;;15.02;;
19219;SDS011;9744;49.364;7.484;2023-02-03T05:47:45;25.13;;;14.60;;
19219;SDS011;9744;49.364;7.484;2023-02-03T05:50:13;27.00;;;14.25;;
19219;SDS011;9744;49.364;7.484;2023-02-03T05:52:41;26.77;;;14.00;;
19219;SDS011;9744;49.364;7.484;2023-02-03T05:55:09;26.30;;;13.73;;
19219;SDS011;9744;49.364;7.484;2023-02-03T05:57:36;28.17;;;14.07;;
19219;SDS011;9744;49.364;7.484;2023-02-03T06:00:04;28.13;;;14.63;;
19219;SDS011;9744;49.364;7.484;2023-02-03T06:02:38;20.45;;;13.73;;
19219;SDS011;9744;49.364;7.484;2023-02-03T06:05:06;28.17;;;15.73;;
19219;SDS011;9744;49.364;7.484;2023-02-03T06:07:34;28.48;;;14.95;;
19219;SDS011;9744;49.364;7.484;2023-02-03T06:10:02;29.42;;;16.20;;
19219;SDS011;9744;49.364;7.484;2023-02-03T06:12:30;28.67;;;16.63;;
19219;SDS011;9744;49.364;7.484;2023-02-03T06:14:57;31.52;;;16.35;;
19219;SDS011;9744;49.364;7.484;2023-02-03T06:17:25;33.88;;;16.80;;
19219;SDS011;9744;49.364;7.484;2023-02-03T06:19:53;33.60;;;15.75;;
19219;SDS011;9744;49.364;7.484;2023-02-03T06:22:23;32.30;;;17.90;;
19219;SDS011;9744;49.364;7.484;2023-02-03T06:24:51;32.97;;;16.30;;
19219;SDS011;9744;49.364;7.484;2023-02-03T06:27:18;30.67;;;15.27;;
19219;SDS011;9744;49.364;7.484;2023-02-03T06:29:46;30.27;;;16.10;;
19219;SDS011;9744;49.364;7.484;2023-02-03T06:32:13;29.30;;;15.85;;
19219;SDS011;9744;49.364;7.484;2023-02-03T06:34:41;29.42;;;17.30;;
19219;SDS011;9744;49.364;7.484;2023-02-03T06:37:10;28.48;;;16.65;;
19219;SDS011;9744;49.364;7.484;2023-02-03T06:39:37;33.00;;;15.35;;
19219;SDS011;9744;49.364;7.484;2023-02-03T06:42:05;29.13;;;16.63;;
19219;SDS011;9744;49.364;7.484;2023-02-03T06:44:32;25.05;;;14.95;;
19219;SDS011;9744;49.364;7.484;2023-02-03T06:47:00;29.98;;;14.52;;
19219;SDS011;9744;49.364;7.484;2023-02-03T06:49:28;28.75;;;14.82;;
19219;SDS011;9744;49.364;7.484;2023-02-03T06:52:01;26.02;;;13.50;;
19219;SDS011;9744;49.364;7.484;2023-02-03T06:54:30;24.05;;;13.63;;
19219;SDS011;9744;49.364;7.484;2023-02-03T06:56:58;28.88;;;14.30;;
19219;SDS011;9744;49.364;7.484;2023-02-03T06:59:25;22.77;;;13.95;;
19219;SDS011;9744;49.364;7.484;2023-02-03T07:01:54;25.90;;;13.85;;
19219;SDS011;9744;49.364;7.484;2023-02-03T07:04:22;29.83;;;14.32;;
19219;SDS011;9744;49.364;7.484;2023-02-03T07:06:50;28.02;;;14.52;;
19219;SDS011;9744;49.364;7.484;2023-02-03T07:09:18;23.60;;;13.85;;
19219;SDS011;9744;49.364;7.484;2023-02-03T07:11:47;29.00;;;13.95;;
19219;SDS011;9744;49.364;7.484;2023-02-03T07:14:14;26.88;;;14.48;;
19219;SDS011;9744;49.364;7.484;2023-02-03T07:16:42;30.83;;;15.27;;
19219;SDS011;9744;49.364;7.484;2023-02-03T07:19:09;28.30;;;15.02;;
19219;SDS011;9744;49.364;7.484;2023-02-03T07:21:37;26.38;;;15.55;;
19219;SDS011;9744;49.364;7.484;2023-02-03T07:24:05;27.73;;;15.90;;
19219;SDS011;9744;49.364;7.484;2023-02-03T07:26:32;28.02;;;16.05;;
19219;SDS011;9744;49.364;7.484;2023-02-03T07:29:02;33.53;;;16.02;;
19219;SDS011;9744;49.364;7.484;2023-02-03T07:31:29;26.75;;;14.40;;
19219;SDS011;9744;49.364;7.484;2023-02-03T07:33:57;26.35;;;14.10;;
19219;SDS011;9744;49.364;7.484;2023-02-03T07:36:25;29.02;;;14.88;;
19219;SDS011;9744;49.364;7.484;2023-02-03T07:38:53;29.55;;;14.73;;
19219;SDS011;9744;49.364;7.484;2023-02-03T07:41:20;24.92;;;14.75;;
19219;SDS011;9744;49.364;7.484;2023-02-03T07:43:48;25.13;;;14.43;;
19219;SDS011;9744;49.364;7.484;2023-02-03T07:46:17;25.48;;;14.40;;
19219;SDS011;9744;49.364;7.484;2023-02-03T07:48:44;26.65;;;13.65;;
19219;SDS011;9744;49.364;7.484;2023-02-03T07:51:12;24.83;;;14.38;;
19219;SDS011;9744;49.364;7.484;2023-02-03T07:53:39;25.83;;;14.75;;
19219;SDS011;9744;49.364;7.484;2023-02-03T07:56:07;26.08;;;14.07;;
19219;SDS011;9744;49.364;7.484;2023-02-03T07:58:36;24.73;;;15.27;;
19219;SDS011;9744;49.364;7.484;2023-02-03T08:01:08;25.25;;;15.18;;
19219;SDS011;9744;49.364;7.484;2023-02-03T08:03:38;29.20;;;14.38;;
19219;SDS011;9744;49.364;7.484;2023-02-03T08:06:06;23.45;;;13.73;;
19219;SDS011;9744;49.364;7.484;2023-02-03T08:08:34;21.67;;;14.18;;
19219;SDS011;9744;49.364;7.484;2023-02-03T08:11:02;25.15;;;14.82;;
19219;SDS011;9744;49.364;7.484;2023-02-03T08:13:30;29.67;;;14.93;;
19219;SDS011;9744;49.364;7.484;2023-02-03T08:15:58;29.33;;;16.70;;
19219;SDS011;9744;49.364;7.484;2023-02-03T08:18:25;26.95;;;15.27;;
19219;SDS011;9744;49.364;7.484;2023-02-03T08:20:54;26.98;;;16.27;;
19219;SDS011;9744;49.364;7.484;2023-02-03T08:23:21;27.10;;;15.50;;
19219;SDS011;9744;49.364;7.484;2023-02-03T08:25:49;29.33;;;16.63;;
19219;SDS011;9744;49.364;7.484;2023-02-03T08:28:17;25.73;;;14.23;;
19219;SDS011;9744;49.364;7.484;2023-02-03T08:30:45;40.15;;;23.27;;
19219;SDS011;9744;49.364;7.484;2023-02-03T08:33:15;25.42;;;14.15;;
19219;SDS011;9744;49.364;7.484;2023-02-03T08:35:44;25.67;;;13.90;;
19219;SDS011;9744;49.364;7.484;2023-02-03T08:38:14;22.02;;;13.13;;
19219;SDS011;9744;49.364;7.484;2023-02-03T08:40:41;25.80;;;13.35;;
19219;SDS011;9744;49.364;7.484;2023-02-03T08:43:09;23.83;;;13.00;;
19219;SDS011;9744;49.364;7.484;2023-02-03T08:45:37;21.85;;;12.95;;
19219;SDS011;9744;49.364;7.484;2023-02-03T08:48:05;32.58;;;13.50;;
19219;SDS011;9744;49.364;7.484;2023-02-03T08:50:34;26.75;;;13.50;;
19219;SDS011;9744;49.364;7.484;2023-02-03T08:53:01;22.58;;;13.07;;
19219;SDS011;9744;49.364;7.484;2023-02-03T08:55:30;24.73;;;13.88;;
19219;SDS011;9744;49.364;7.484;2023-02-03T08:57:58;27.48;;;12.60;;
19219;SDS011;9744;49.364;7.484;2023-02-03T09:00:25;31.10;;;16.42;;
19219;SDS011;9744;49.364;7.484;2023-02-03T09:02:53;24.40;;;13.80;;
19219;SDS011;9744;49.364;7.484;2023-02-03T09:05:20;21.90;;;12.02;;
19219;SDS011;9744;49.364;7.484;2023-02-03T09:07:48;22.08;;;13.07;;
19219;SDS011;9744;49.364;7.484;2023-02-03T09:10:16;26.48;;;12.88;;
19219;SDS011;9744;49.364;7.484;2023-02-03T09:12:45;22.63;;;12.68;;
19219;SDS011;9744;49.364;7.484;2023-02-03T09:15:13;19.98;;;12.15;;
19219;SDS011;9744;49.364;7.484;2023-02-03T09:17:41;19.38;;;11.38;;
19219;SDS011;9744;49.364;7.484;2023-02-03T09:20:09;19.55;;;11.10;;
19219;SDS011;9744;49.364;7.484;2023-02-03T09:22:37;20.23;;;10.48;;
19219;SDS011;9744;49.364;7.484;2023-02-03T09:25:05;16.88;;;10.85;;
19219;SDS011;9744;49.364;7.484;2023-02-03T09:27:33;16.35;;;9.90;;
19219;SDS011;9744;49.364;7.484;2023-02-03T09:30:02;16.05;;;8.40;;
19219;SDS011;9744;49.364;7.484;2023-02-03T09:32:30;13.85;;;8.07;;
19219;SDS011;9744;49.364;7.484;2023-02-03T09:34:58;10.40;;;7.47;;
19219;SDS011;9744;49.364;7.484;2023-02-03T09:37:27;10.52;;;7.07;;
19219;SDS011;9744;49.364;7.484;2023-02-03T09:39:55;12.57;;;6.78;;
19219;SDS011;9744;49.364;7.484;2023-02-03T09:42:27;11.82;;;6.45;;
19219;SDS011;9744;49.364;7.484;2023-02-03T09:45:11;8.80;;;5.55;;
19219;SDS011;9744;49.364;7.484;2023-02-03T09:47:43;10.55;;;5.95;;
19219;SDS011;9744;49.364;7.484;2023-02-03T09:50:18;11.05;;;5.32;;
19219;SDS011;9744;49.364;7.484;2023-02-03T09:52:48;7.40;;;5.25;;
19219;SDS011;9744;49.364;7.484;2023-02-03T09:55:23;9.38;;;6.03;;
19219;SDS011;9744;49.364;7.484;2023-02-03T09:57:55;7.22;;;5.32;;
19219;SDS011;9744;49.364;7.484;2023-02-03T10:00:30;11.77;;;6.57;;
19219;SDS011;9744;49.364;7.484;2023-02-03T10:03:02;9.15;;;5.63;;
19219;SDS011;9744;49.364;7.484;2023-02-03T10:05:47;10.02;;;6.50;;
19219;SDS011;9744;49.364;7.484;2023-02-03T10:08:24;10.77;;;7.32;;
19219;SDS011;9744;49.364;7.484;2023-02-03T10:11:05;14.63;;;8.30;;
19219;SDS011;9744;49.364;7.484;2023-02-03T10:13:43;9.32;;;6.45;;
19219;SDS011;9744;49.364;7.484;2023-02-03T10:16:24;11.15;;;7.72;;
19219;SDS011;9744;49.364;7.484;2023-02-03T10:19:02;11.85;;;7.40;;
19219;SDS011;9744;49.364;7.484;2023-02-03T10:21:37;11.30;;;7.03;;
19219;SDS011;9744;49.364;7.484;2023-02-03T10:24:09;11.00;;;7.22;;
19219;SDS011;9744;49.364;7.484;2023-02-03T10:26:41;15.20;;;6.95;;
19219;SDS011;9744;49.364;7.484;2023-02-03T10:29:17;14.57;;;7.10;;
19219;SDS011;9744;49.364;7.484;2023-02-03T10:31:47;11.35;;;6.47;;
19219;SDS011;9744;49.364;7.484;2023-02-03T10:42:33;8.32;;;5.05;;
19219;SDS011;9744;49.364;7.484;2023-02-03T10:45:15;10.75;;;6.32;;
19219;SDS011;9744;49.364;7.484;2023-02-03T10:47:44;23.23;;;11.30;;
19219;SDS011;9744;49.364;7.484;2023-02-03T10:50:15;8.45;;;4.97;;
19219;SDS011;9744;49.364;7.484;2023-02-03T10:52:44;6.28;;;4.45;;
19219;SDS011;9744;49.364;7.484;2023-02-03T10:55:27;6.97;;;4.95;;
19219;SDS011;9744;49.364;7.484;2023-02-03T10:57:57;22.85;;;11.52;;
19219;SDS011;9744;49.364;7.484;2023-02-03T11:00:32;7.95;;;4.57;;
19219;SDS011;9744;49.364;7.484;2023-02-03T11:03:04;6.65;;;4.80;;
19219;SDS011;9744;49.364;7.484;2023-02-03T11:05:33;21.20;;;11.73;;
19219;SDS011;9744;49.364;7.484;2023-02-03T11:08:01;10.60;;;6.03;;
19219;SDS011;9744;49.364;7.484;2023-02-03T11:10:30;10.45;;;6.93;;
19219;SDS011;9744;49.364;7.484;2023-02-03T11:13:12;15.48;;;9.13;;
19219;SDS011;9744;49.364;7.484;2023-02-03T11:15:44;9.52;;;6.05;;
19219;SDS011;9744;49.364;7.484;2023-02-03T11:18:35;7.28;;;5.95;;
19219;SDS011;9744;49.364;7.484;2023-02-03T11:21:11;10.02;;;6.50;;
19219;SDS011;9744;49.364;7.484;2023-02-03T11:23:43;10.48;;;6.90;;
19219;SDS011;9744;49.364;7.484;2023-02-03T11:26:16;11.77;;;7.18;;
19219;SDS011;9744;49.364;7.484;2023-02-03T11:28:48;8.90;;;6.55;;
19219;SDS011;9744;49.364;7.484;2023-02-03T11:31:18;8.50;;;5.97;;
19219;SDS011;9744;49.364;7.484;2023-02-03T11:33:51;8.50;;;5.72;;
19219;SDS011;9744;49.364;7.484;2023-02-03T11:36:24;7.13;;;5.70;;
19219;SDS011;9744;49.364;7.484;2023-02-03T11:41:41;13.85;;;7.93;;
19219;SDS011;9744;49.364;7.484;2023-02-03T11:44:09;7.85;;;5.90;;
19219;SDS011;9744;49.364;7.484;2023-02-03T11:46:38;7.78;;;5.20;;
19219;SDS011;9744;49.364;7.484;2023-02-03T11:49:11;8.80;;;5.95;;
19219;SDS011;9744;49.364;7.484;2023-02-03T11:51:59;10.45;;;7.45;;
19219;SDS011;9744;49.364;7.484;2023-02-03T11:54:37;12.07;;;6.47;;
19219;SDS011;9744;49.364;7.484;2023-02-03T11:57:17;6.30;;;5.28;;
19219;SDS011;9744;49.364;7.484;2023-02-03T11:59:58;8.23;;;5.55;;
19219;SDS011;9744;49.364;7.484;2023-02-03T12:05:36;10.95;;;6.65;;
19219;SDS011;9744;49.364;7.484;2023-02-03T12:08:40;9.80;;;5.13;;
19219;SDS011;9744;49.364;7.484;2023-02-03T12:11:28;12.25;;;6.05;;
19219;SDS011;9744;49.364;7.484;2023-02-03T12:14:09;10.00;;;6.70;;
19219;SDS011;9744;49.364;7.484;2023-02-03T12:19:50;12.13;;;7.10;;
19219;SDS011;9744;49.364;7.484;2023-02-03T12:22:30;7.95;;;5.53;;
19219;SDS011;9744;49.364;7.484;2023-02-03T12:25:15;9.73;;;5.78;;
19219;SDS011;9744;49.364;7.484;2023-02-03T12:27:54;5.95;;;3.45;;
19219;SDS011;9744;49.364;7.484;2023-02-03T12:33:19;4.53;;;3.42;;
19219;SDS011;9744;49.364;7.484;2023-02-03T12:35:51;6.00;;;4.32;;
19219;SDS011;9744;49.364;7.484;2023-02-03T12:38:26;8.40;;;4.70;;
19219;SDS011;9744;49.364;7.484;2023-02-03T12:41:00;4.85;;;4.40;;
19219;SDS011;9744;49.364;7.484;2023-02-03T12:43:32;9.45;;;4.78;;
19219;SDS011;9744;49.364;7.484;2023-02-03T12:46:03;7.85;;;4.10;;
19219;SDS011;9744;49.364;7.484;2023-02-03T12:48:41;7.38;;;4.63;;
19219;SDS011;9744;49.364;7.484;2023-02-03T12:51:18;9.23;;;5.70;;
19219;SDS011;9744;49.364;7.484;2023-02-03T12:53:57;6.10;;;4.13;;
19219;SDS011;9744;49.364;7.484;2023-02-03T12:56:33;4.18;;;3.75;;
19219;SDS011;9744;49.364;7.484;2023-02-03T12:59:07;6.75;;;4.13;;
19219;SDS011;9744;49.364;7.484;2023-02-03T13:01:41;4.78;;;3.90;;
19219;SDS011;9744;49.364;7.484;2023-02-03T13:04:14;5.10;;;4.35;;
19219;SDS011;9744;49.364;7.484;2023-02-03T13:06:52;7.45;;;4.38;;
19219;SDS011;9744;49.364;7.484;2023-02-03T13:09:30;7.88;;;4.70;;
19219;SDS011;9744;49.364;7.484;2023-02-03T13:12:05;7.00;;;5.05;;
19219;SDS011;9744;49.364;7.484;2023-02-03T13:14:37;7.43;;;5.88;;
19219;SDS011;9744;49.364;7.484;2023-02-03T13:17:12;9.10;;;5.47;;
19219;SDS011;9744;49.364;7.484;2023-02-03T13:19:44;9.55;;;5.45;;
19219;SDS011;9744;49.364;7.484;2023-02-03T13:22:15;7.28;;;5.45;;
19219;SDS011;9744;49.364;7.484;2023-02-03T13:24:45;7.90;;;5.82;;
19219;SDS011;9744;49.364;7.484;2023-02-03T13:27:24;10.07;;;5.80;;
19219;SDS011;9744;49.364;7.484;2023-02-03T13:30:10;10.57;;;7.20;;
19219;SDS011;9744;49.364;7.484;2023-02-03T13:33:11;7.30;;;6.23;;
19219;SDS011;9744;49.364;7.484;2023-02-03T13:36:02;6.78;;;4.93;;
19219;SDS011;9744;49.364;7.484;2023-02-03T13:38:43;7.78;;;5.35;;
19219;SDS011;9744;49.364;7.484;2023-02-03T13:41:29;5.38;;;4.35;;
19219;SDS011;9744;49.364;7.484;2023-02-03T13:44:02;7.07;;;4.65;;
19219;SDS011;9744;49.364;7.484;2023-02-03T13:46:31;9.50;;;6.47;;
19219;SDS011;9744;49.364;7.484;2023-02-03T13:49:02;6.32;;;4.65;;
19219;SDS011;9744;49.364;7.484;2023-02-03T13:51:32;9.23;;;6.57;;
19219;SDS011;9744;49.364;7.484;2023-02-03T13:54:02;11.52;;;7.30;;
19219;SDS011;9744;49.364;7.484;2023-02-03T13:56:33;8.15;;;5.50;;
19219;SDS011;9744;49.364;7.484;2023-02-03T13:59:02;11.23;;;6.32;;
19219;SDS011;9744;49.364;7.484;2023-02-03T14:01:33;8.48;;;5.93;;
19219;SDS011;9744;49.364;7.484;2023-02-03T14:04:03;17.08;;;9.13;;
19219;SDS011;9744;49.364;7.484;2023-02-03T14:09:36;14.45;;;7.95;;
19219;SDS011;9744;49.364;7.484;2023-02-03T14:15:28;9.68;;;7.00;;
19219;SDS011;9744;49.364;7.484;2023-02-03T14:21:08;13.07;;;8.02;;
19219;SDS011;9744;49.364;7.484;2023-02-03T14:23:45;17.35;;;10.82;;
19219;SDS011;9744;49.364;7.484;2023-02-03T14:26:38;14.02;;;9.55;;
19219;SDS011;9744;49.364;7.484;2023-02-03T14:29:10;12.77;;;8.20;;
19219;SDS011;9744;49.364;7.484;2023-02-03T14:31:52;14.80;;;8.88;;
19219;SDS011;9744;49.364;7.484;2023-02-03T14:34:34;15.13;;;9.52;;
19219;SDS011;9744;49.364;7.484;2023-02-03T14:37:08;14.73;;;10.40;;
19219;SDS011;9744;49.364;7.484;2023-02-03T14:39:48;13.38;;;9.48;;
19219;SDS011;9744;49.364;7.484;2023-02-03T14:45:28;16.75;;;10.38;;
19219;SDS011;9744;49.364;7.484;2023-02-03T14:48:29;33.28;;;16.98;;
19219;SDS011;9744;49.364;7.484;2023-02-03T14:51:10;28.08;;;16.63;;
19219;SDS011;9744;49.364;7.484;2023-02-03T14:54:05;16.85;;;11.25;;
19219;SDS011;9744;49.364;7.484;2023-02-03T14:56:53;22.67;;;13.35;;
19219;SDS011;9744;49.364;7.484;2023-02-03T14:59:45;26.27;;;15.75;;
19219;SDS011;9744;49.364;7.484;2023-02-03T15:02:16;20.67;;;13.48;;
19219;SDS011;9744;49.364;7.484;2023-02-03T15:04:47;21.08;;;13.27;;
19219;SDS011;9744;49.364;7.484;2023-02-03T15:07:35;22.10;;;14.20;;
19219;SDS011;9744;49.364;7.484;2023-02-03T15:10:18;27.30;;;15.13;;
19219;SDS011;9744;49.364;7.484;2023-02-03T15:12:47;19.95;;;13.27;;
19219;SDS011;9744;49.364;7.484;2023-02-03T15:15:18;26.35;;;15.80;;
19219;SDS011;9744;49.364;7.484;2023-02-03T15:17:50;23.65;;;12.48;;
19219;SDS011;9744;49.364;7.484;2023-02-03T15:23:16;24.10;;;14.07;;
19219;SDS011;9744;49.364;7.484;2023-02-03T15:25:46;22.40;;;14.85;;
19219;SDS011;9744;49.364;7.484;2023-02-03T15:28:19;28.23;;;15.93;;
19219;SDS011;9744;49.364;7.484;2023-02-03T15:33:30;21.67;;;14.35;;
19219;SDS011;9744;49.364;7.484;2023-02-03T15:36:00;19.08;;;13.60;;
19219;SDS011;9744;49.364;7.484;2023-02-03T15:38:32;23.88;;;12.90;;
19219;SDS011;9744;49.364;7.484;2023-02-03T15:41:05;19.58;;;12.88;;
19219;SDS011;9744;49.364;7.484;2023-02-03T15:43:37;25.48;;;15.75;;
19219;SDS011;9744;49.364;7.484;2023-02-03T15:46:07;22.33;;;12.82;;
19219;SDS011;9744;49.364;7.484;2023-02-03T15:48:44;20.35;;;13.27;;
19219;SDS011;9744;49.364;7.484;2023-02-03T15:51:17;23.10;;;13.85;;
19219;SDS011;9744;49.364;7.484;2023-02-03T15:53:51;20.65;;;13.43;;
19219;SDS011;9744;49.364;7.484;2023-02-03T15:56:24;24.08;;;13.68;;
19219;SDS011;9744;49.364;7.484;2023-02-03T15:59:01;23.42;;;14.20;;
19219;SDS011;9744;49.364;7.484;2023-02-03T16:01:29;21.60;;;13.90;;
19219;SDS011;9744;49.364;7.484;2023-02-03T16:03:58;21.00;;;13.95;;
19219;SDS011;9744;49.364;7.484;2023-02-03T16:06:26;21.10;;;12.73;;
19219;SDS011;9744;49.364;7.484;2023-02-03T16:09:00;17.35;;;11.98;;
19219;SDS011;9744;49.364;7.484;2023-02-03T16:11:30;19.60;;;13.38;;
19219;SDS011;9744;49.364;7.484;2023-02-03T16:13:59;18.30;;;11.50;;
19219;SDS011;9744;49.364;7.484;2023-02-03T16:16:30;24.45;;;15.05;;
19219;SDS011;9744;49.364;7.484;2023-02-03T16:19:03;22.05;;;13.25;;
19219;SDS011;9744;49.364;7.484;2023-02-03T16:21:42;19.05;;;12.55;;
19219;SDS011;9744;49.364;7.484;2023-02-03T16:24:31;23.15;;;13.40;;
19219;SDS011;9744;49.364;7.484;2023-02-03T16:27:21;20.17;;;12.82;;
19219;SDS011;9744;49.364;7.484;2023-02-03T16:33:12;25.50;;;15.65;;
19219;SDS011;9744;49.364;7.484;2023-02-03T16:36:03;24.17;;;13.57;;
19219;SDS011;9744;49.364;7.484;2023-02-03T16:38:53;26.35;;;16.45;;